Time;durP1;ratioP1;P1;durP2;ratioP2;P2;SDS_P1;SDS_P2;PMS_P1;PMS_P2;Temp;Humidity;BMP_temperature;BMP_pressure;BME280_temperature;BME280_humidity;BME280_pressure;Samples;Min_cycle;Max_cycle;Signal;HPM_P1;HPM_P2
2021/10/24 00:04:04;;;;;;;;;;;;;;;2.59;100.00;96699.28;10572650;28;2124;-73
2021/10/24 00:09:08;;;;;;;;;;;;;;;2.60;100.00;96700.94;10568138;28;1931;-74
2021/10/24 00:14:11;;;;;;;;;;;;;;;2.36;100.00;96699.66;10569261;28;1720;-73
2021/10/24 00:19:15;;;;;;;;;;;;;;;2.34;100.00;96699.84;10568966;28;2306;-73
2021/10/24 00:24:18;;;;;;;;;;;3.50;99.90;;;2.36;100.00;96691.69;10567424;28;1942;-73
2021/10/24 00:29:21;;;;;;;;;;;3.40;99.90;;;2.35;100.00;96690.03;10577449;28;1990;-74
2021/10/24 00:34:24;;;;;;;;;;;3.40;99.90;;;2.27;100.00;96685.72;10576017;28;1921;-74
2021/10/24 00:39:26;;;;;;;;;;;3.40;99.90;;;2.37;100.00;96669.44;10552007;28;1912;-74
2021/10/24 00:44:29;;;;;;;;;;;3.40;99.90;;;2.38;100.00;96679.84;10575681;28;1901;-73
2021/10/24 00:49:32;;;;;;;;;;;3.50;99.90;;;2.15;100.00;96671.41;10572011;27;1978;-73
2021/10/24 00:54:35;;;;;;;;;;;3.40;99.90;;;2.11;100.00;96665.69;10573005;27;2015;-74
2021/10/24 00:59:38;;;;;;;;;;;3.30;99.90;;;2.03;100.00;96660.53;10578462;28;2110;-74
2021/10/24 01:04:43;;;;;;;;;;;3.10;99.90;;;2.04;100.00;96656.09;10567949;28;1972;-73
2021/10/24 01:09:46;;;;;;;;;;;3.20;99.90;;;2.02;100.00;96650.94;10556472;28;2102;-75
2021/10/24 01:14:50;;;;;;;;;;;3.10;99.90;;;2.00;100.00;96639.72;10575037;28;2006;-73
2021/10/24 01:19:53;;;;;;;;;;;3.10;99.90;;;1.93;100.00;96641.53;10571490;27;2093;-73
2021/10/24 01:25:15;;;;;;;;;;;3.00;99.90;;;1.89;100.00;96633.16;10569276;28;2105;-73
2021/10/24 01:30:19;;;;;;;;;;;3.00;99.90;;;1.95;100.00;96638.69;10573648;28;1991;-75
2021/10/24 01:35:21;;;;;;;;;;;3.00;99.90;;;1.95;100.00;96628.91;10574978;27;2110;-73
2021/10/24 01:40:24;;;;;;;;;;;3.00;99.90;;;1.89;100.00;96621.72;10576188;27;2098;-73
2021/10/24 01:45:27;;;;;;;;;;;3.00;99.90;;;1.88;100.00;96628.06;10572595;28;2050;-74
2021/10/24 01:50:30;;;;;;;;;;;2.90;99.90;;;1.84;100.00;96617.00;10553644;27;2043;-73
2021/10/24 01:55:34;;;;;;;;;;;2.90;99.90;;;1.84;100.00;96610.91;10575734;27;2176;-74
2021/10/24 02:00:38;;;;;;;;;;;;;;;1.74;100.00;96600.69;10576949;28;2085;-76
2021/10/24 02:05:41;;;;;;;;;;;;;;;1.75;100.00;96604.16;10574369;28;2003;-75
2021/10/24 02:10:45;;;;;;;;;;;;;;;1.65;100.00;96598.38;10551131;28;1956;-75
2021/10/24 02:15:48;;;;;;;;;;;2.90;99.90;;;1.69;100.00;96600.44;10573947;28;2086;-74
2021/10/24 02:20:51;;;;;;;;;;;2.80;99.90;;;1.67;100.00;96599.03;10573075;28;2078;-74
2021/10/24 02:25:53;;;;;;;;;;;3.00;99.90;;;1.62;100.00;96596.97;10554912;28;2052;-74
2021/10/24 02:30:56;;;;;;;;;;;2.70;99.90;;;1.69;100.00;96591.69;10570090;28;2080;-73
2021/10/24 02:36:00;;;;;;;;;;;2.70;99.90;;;1.58;100.00;96599.16;10568489;28;2027;-74
2021/10/24 02:41:03;;;;;;;;;;;2.70;99.90;;;1.60;100.00;96599.81;10572106;27;2315;-74
2021/10/24 02:46:06;;;;;;;;;;;2.70;99.90;;;1.63;100.00;96593.28;10568914;28;2062;-74
2021/10/24 02:51:09;;;;;;;;;;;;;;;1.58;100.00;96583.28;10556741;27;2016;-74
2021/10/24 02:56:12;;;;;;;;;;;2.70;99.90;;;1.58;100.00;96585.91;10572414;27;2168;-73
2021/10/24 03:01:15;;;;;;;;;;;2.80;99.90;;;1.51;100.00;96579.78;10573978;27;2034;-75
2021/10/24 03:06:18;;;;;;;;;;;2.70;99.90;;;1.47;100.00;96567.97;10587873;27;2051;-74
2021/10/24 03:11:21;;;;;;;;;;;2.70;99.90;;;1.42;100.00;96570.38;10582589;27;1992;-73
2021/10/24 03:16:24;;;;;;;;;;;2.60;99.90;;;1.39;100.00;96565.44;10614843;28;2364;-75
2021/10/24 03:21:27;;;;;;;;;;;2.80;99.90;;;1.33;100.00;96567.03;10617502;28;2018;-73
2021/10/24 03:26:30;;;;;;;;;;;2.60;99.90;;;1.33;100.00;96574.19;10580659;27;2066;-73
2021/10/24 03:31:33;;;;;;;;;;;2.50;99.90;;;1.37;100.00;96578.09;10552440;28;2173;-74
2021/10/24 03:36:36;;;;;;;;;;;2.60;99.90;;;1.29;100.00;96571.13;10572184;27;2113;-74
2021/10/24 03:41:38;;;;;;;;;;;2.60;99.90;;;1.24;100.00;96578.81;10572021;28;2074;-73
2021/10/24 03:46:41;;;;;;;;;;;2.50;99.90;;;1.28;100.00;96573.97;10587717;28;2011;-74
2021/10/24 03:51:46;;;;;;;;;;;2.70;99.90;;;1.23;100.00;96565.78;10616039;27;1979;-74
2021/10/24 03:56:49;;;;;;;;;;;2.50;99.90;;;1.20;100.00;96574.91;10615773;27;2050;-73
2021/10/24 04:01:52;;;;;;;;;;;2.30;99.90;;;1.21;100.00;96578.38;10596746;28;1944;-74
2021/10/24 04:06:55;;;;;;;;;;;2.50;99.90;;;1.19;100.00;96575.94;10580668;28;1917;-73
2021/10/24 04:11:58;;;;;;;;;;;2.30;99.90;;;1.08;100.00;96576.47;10566321;28;2094;-73
2021/10/24 04:17:01;;;;;;;;;;;;;;;1.11;100.00;96572.63;10571711;28;2250;-73
2021/10/24 04:22:25;;;;;;;;;;;2.20;99.90;;;1.10;100.00;96571.00;10569772;28;1995;-74
2021/10/24 04:27:27;;;;;;;;;;;2.20;99.90;;;1.09;100.00;96570.19;10571236;28;2166;-74
2021/10/24 04:32:31;;;;;;;;;;;2.20;99.90;;;0.99;100.00;96570.53;10567414;28;2058;-73
2021/10/24 04:37:34;;;;;;;;;;;2.20;99.90;;;1.18;100.00;96570.84;10569118;28;2047;-72
2021/10/24 04:42:37;;;;;;;;;;;2.30;99.90;;;1.12;100.00;96558.38;10567930;28;1996;-75
2021/10/24 04:47:53;;;;;;;;;;;2.30;99.90;;;1.16;100.00;96552.50;10550295;28;2189;-74
2021/10/24 04:52:56;;;;;;;;;;;2.30;99.90;;;1.12;100.00;96553.91;10552681;28;2017;-74
2021/10/24 04:57:59;;;;;;;;;;;2.40;99.90;;;1.05;100.00;96551.22;10567960;28;2020;-73
2021/10/24 05:03:02;;;;;;;;;;;2.30;99.90;;;1.01;100.00;96557.91;10569197;28;1983;-73
2021/10/24 05:08:05;;;;;;;;;;;2.20;99.90;;;1.01;100.00;96542.00;10546149;28;2060;-73
2021/10/24 05:13:08;;;;;;;;;;;2.10;99.90;;;0.97;100.00;96543.44;10574298;27;2131;-74
2021/10/24 05:18:11;;;;;;;;;;;2.10;99.90;;;0.98;100.00;96534.47;10578127;27;2023;-75
2021/10/24 05:23:13;;;;;;;;;;;2.10;99.90;;;0.96;100.00;96536.50;10575808;28;2023;-74
2021/10/24 05:28:29;;;;;;;;;;;2.10;99.90;;;0.95;100.00;96520.81;10566839;28;2090;-75
2021/10/24 05:33:32;;;;;;;;;;;2.10;99.90;;;0.95;100.00;96521.63;10576576;27;2079;-74
2021/10/24 05:38:36;;;;;;;;;;;2.10;99.90;;;0.92;100.00;96507.97;10574821;27;1849;-75
2021/10/24 05:43:39;;;;;;;;;;;2.10;99.90;;;0.90;100.00;96508.16;10574253;28;1904;-72
2021/10/24 05:48:41;;;;;;;;;;;2.10;99.90;;;0.97;100.00;96519.63;10572295;28;2094;-73
2021/10/24 05:53:44;;;;;;;;;;;2.10;99.90;;;0.85;100.00;96521.16;10575009;28;2106;-74
2021/10/24 05:58:49;;;;;;;;;;;2.10;99.90;;;0.75;100.00;96524.13;10572995;28;1988;-74
2021/10/24 06:03:52;;;;;;;;;;;2.00;99.90;;;0.90;100.00;96525.88;10570102;28;2133;-74
2021/10/24 06:08:55;;;;;;;;;;;2.00;99.90;;;0.87;100.00;96529.72;10563843;28;2038;-73
2021/10/24 06:13:58;;;;;;;;;;;2.00;99.90;;;0.91;100.00;96536.28;10572723;28;2161;-74
2021/10/24 06:19:01;;;;;;;;;;;2.00;99.90;;;0.97;100.00;96548.72;10571255;28;1980;-74
2021/10/24 06:24:03;;;;;;;;;;;2.10;99.90;;;1.07;100.00;96557.13;10571008;28;2003;-74
2021/10/24 06:29:06;;;;;;;;;;;2.10;99.90;;;0.96;100.00;96555.03;10571941;28;2070;-74
2021/10/24 06:34:09;;;;;;;;;;;2.10;99.90;;;0.97;100.00;96561.97;10573399;27;2129;-73
2021/10/24 06:39:12;;;;;;;;;;;2.10;99.90;;;1.12;100.00;96558.38;10567314;28;2031;-73
2021/10/24 06:44:15;;;;;;;;;;;2.20;99.90;;;1.19;100.00;96562.69;10572523;28;2036;-73
2021/10/24 06:49:18;;;;;;;;;;;2.20;99.90;;;1.28;100.00;96563.38;10573536;27;2163;-74
2021/10/24 06:54:21;;;;;;;;;;;2.40;99.90;;;1.46;100.00;96566.28;10572516;28;2050;-74
2021/10/24 06:59:24;;;;;;;;;;;2.50;99.90;;;1.54;100.00;96573.28;10570795;28;1977;-74
2021/10/24 07:04:27;;;;;;;;;;;2.60;99.90;;;1.66;100.00;96570.88;10570746;28;1847;-73
2021/10/24 07:09:30;;;;;;;;;;;2.70;99.90;;;1.68;100.00;96563.56;10570185;28;1906;-74
2021/10/24 07:14:44;;;;;;;;;;;2.70;99.90;;;1.79;100.00;96571.75;10569783;28;1920;-74
2021/10/24 07:19:47;;;;;;;;;;;2.80;99.90;;;1.93;100.00;96566.50;10572202;27;1883;-73
2021/10/24 07:24:50;;;;;;;;;;;2.90;99.90;;;2.04;100.00;96569.38;10570287;28;1903;-74
2021/10/24 07:29:53;;;;;;;;;;;3.00;99.90;;;2.25;100.00;96564.94;10569936;27;1915;-75
2021/10/24 07:34:57;;;;;;;;;;;3.20;99.90;;;2.36;100.00;96564.34;10569810;28;1895;-73
2021/10/24 07:40:00;;;;;;;;;;;3.40;99.90;;;2.48;100.00;96568.00;10569086;28;2202;-74
2021/10/24 07:45:03;;;;;;;;;;;3.40;99.90;;;2.70;100.00;96565.97;10570050;28;1914;-74
2021/10/24 07:50:06;;;;;;;;;;;3.60;99.90;;;2.80;100.00;96571.72;10566343;28;1922;-74
2021/10/24 07:55:09;;;;;;;;;;;3.80;99.90;;;2.86;100.00;96562.91;10567503;28;2172;-74
2021/10/24 08:00:12;;;;;;;;;;;3.90;99.90;;;3.00;100.00;96576.19;10569023;28;1843;-74
2021/10/24 08:05:15;;;;;;;;;;;4.10;99.90;;;3.06;100.00;96568.22;10548733;28;1919;-73
2021/10/24 08:10:18;;;;;;;;;;;4.00;99.90;;;3.25;100.00;96569.19;10568233;28;2005;-74
2021/10/24 08:15:21;;;;;;;;;;;4.20;99.90;;;3.37;100.00;96577.31;10569517;28;1850;-74
2021/10/24 08:20:24;;;;;;;;;;;4.30;99.90;;;3.59;99.67;96568.06;10565476;28;2131;-73
2021/10/24 08:25:28;;;;;;;;;;;4.50;99.90;;;3.67;99.28;96570.47;10564381;28;1973;-75
2021/10/24 08:30:30;;;;;;;;;;;4.60;99.90;;;4.01;97.15;96573.84;10570499;28;1921;-74
2021/10/24 08:35:33;;;;;;;;;;;4.80;99.90;;;4.22;94.91;96564.69;10568111;28;2275;-72
2021/10/24 08:40:36;;;;;;;;;;;5.20;99.90;;;4.40;95.21;96564.78;10569890;28;1831;-73
2021/10/24 08:45:42;;;;;;;;;;;5.30;99.90;;;4.57;93.75;96559.75;10568936;28;1985;-74
2021/10/24 08:50:45;;;;;;;;;;;5.50;99.90;;;4.67;93.45;96562.75;10559180;27;2100;-73
2021/10/24 08:55:48;;;;;;;;;;;5.60;99.90;;;5.02;91.39;96562.22;10576937;28;1910;-74
2021/10/24 09:00:51;;;;;;;;;;;5.80;99.90;;;5.05;90.73;96551.16;10576003;28;1966;-74
2021/10/24 09:05:54;;;;;;;;;;;6.00;99.90;;;5.14;88.76;96553.31;10557586;27;1919;-73
2021/10/24 09:10:57;;;;;;;;;;;6.10;99.90;;;5.40;88.54;96548.72;10560651;28;1984;-73
2021/10/24 09:16:00;;;;;;;;;;;6.30;99.90;;;5.54;88.74;96554.75;10576865;27;2182;-74
2021/10/24 09:21:03;;;;;;;;;;;6.40;99.90;;;5.82;86.56;96547.03;10577813;28;1927;-74
2021/10/24 09:26:06;;;;;;;;;;;6.70;99.90;;;5.96;86.80;96559.19;10574724;28;1894;-73
2021/10/24 09:31:09;;;;;;;;;;;6.80;99.90;;;6.15;85.76;96551.94;10571319;28;1967;-72
2021/10/24 09:36:13;;;;;;;;;;;7.00;99.90;;;6.38;82.04;96548.56;10574898;28;1909;-75
2021/10/24 09:41:16;;;;;;;;;;;7.20;99.90;;;6.45;82.28;96541.25;10574266;27;1897;-74
2021/10/24 09:46:18;;;;;;;;;;;7.30;99.90;;;6.59;82.19;96547.22;10575621;28;1985;-73
2021/10/24 09:51:21;;;;;;;;;;;7.40;99.90;;;6.69;82.16;96546.66;10551860;28;1953;-74
2021/10/24 09:56:27;;;;;;;;;;;7.50;99.90;;;6.82;80.21;96545.63;10572165;28;1948;-74
2021/10/24 10:01:30;;;;;;;;;;;7.60;99.90;;;7.03;79.01;96542.38;10570149;27;1957;-74
2021/10/24 10:06:33;;;;;;;;;;;7.80;99.90;;;7.27;76.42;96543.19;10571318;28;1935;-74
2021/10/24 10:11:35;;;;;;;;;;;8.00;99.90;;;7.29;75.61;96541.09;10555472;28;1944;-74
2021/10/24 10:16:39;;;;;;;;;;;8.10;99.90;;;7.34;74.93;96535.88;10577203;28;1945;-74
2021/10/24 10:21:42;;;;;;;;;;;8.20;99.90;;;7.50;75.27;96537.81;10570796;28;1918;-74
2021/10/24 10:26:45;;;;;;;;;;;8.40;99.90;;;7.55;73.82;96524.53;10554354;28;2008;-73
2021/10/24 10:31:48;;;;;;;;;;;8.40;99.90;;;7.47;74.61;96519.56;10570357;28;1975;-73
2021/10/24 10:36:55;;;;;;;;;;;8.40;99.90;;;7.71;72.71;96528.34;10571754;28;1890;-73
2021/10/24 10:41:58;;;;;;;;;;;8.40;99.90;;;7.78;71.13;96522.88;10575561;27;2075;-73
2021/10/24 10:47:01;;;;;;;;;;;8.70;99.90;;;8.02;70.56;96518.25;10569067;27;1870;-75
2021/10/24 10:52:04;;;;;;;;;;;8.80;99.90;;;8.08;70.42;96522.66;10572242;28;1922;-73
2021/10/24 10:57:07;;;;;;;;;;;8.90;99.90;;;8.15;70.07;96511.81;10566196;27;1898;-73
2021/10/24 11:02:10;;;;;;;;;;;9.00;99.90;;;8.13;69.65;96510.16;10573446;28;1930;-73
2021/10/24 11:07:13;;;;;;;;;;;9.00;99.90;;;8.38;67.14;96503.66;10569315;28;1870;-73
2021/10/24 11:12:16;;;;;;;;;;;9.20;99.90;;;8.48;65.79;96495.81;10569907;28;1913;-74
2021/10/24 11:17:19;;;;;;;;;;;9.40;99.90;;;8.66;66.24;96487.53;10571587;28;1870;-74
2021/10/24 11:22:22;;;;;;;;;;;9.50;99.90;;;8.77;65.44;96480.44;10567162;28;1897;-74
2021/10/24 11:27:25;;;;;;;;;;;9.60;99.90;;;8.86;63.53;96478.19;10564052;28;1842;-74
2021/10/24 11:32:30;;;;;;;;;;;9.70;99.90;;;8.83;64.50;96470.63;10574055;28;1918;-75
2021/10/24 11:37:33;;;;;;;;;;;9.90;99.90;;;9.01;63.54;96472.22;10568341;28;1451;-74
2021/10/24 11:42:37;;;;;;;;;;;9.80;99.90;;;9.02;63.05;96463.13;10573380;28;1800;-74
2021/10/24 11:47:40;;;;;;;;;;;9.90;99.90;;;9.15;62.72;96452.84;10569012;28;1938;-74
2021/10/24 11:52:44;;;;;;;;;;;10.00;99.90;;;9.30;63.11;96454.13;10565089;28;1949;-74
2021/10/24 11:58:01;;;;;;;;;;;10.00;99.90;;;9.32;61.59;96447.44;10561804;28;1928;-75
2021/10/24 12:03:03;;;;;;;;;;;10.20;99.90;;;9.58;61.64;96455.81;10549326;28;1879;-74
2021/10/24 12:08:06;;;;;;;;;;;10.30;99.90;;;9.66;59.37;96450.78;10568639;28;1969;-75
2021/10/24 12:13:09;;;;;;;;;;;10.50;99.90;;;9.76;58.53;96447.44;10563001;28;2121;-73
2021/10/24 12:18:13;;;;;;;;;;;10.60;99.90;;;9.67;58.46;96448.91;10568848;28;1856;-74
2021/10/24 12:23:15;;;;;;;;;;;10.60;99.90;;;9.93;56.98;96441.97;10584158;27;1792;-74
2021/10/24 12:28:21;;;;;;;;;;;10.70;99.90;;;9.80;59.90;96434.28;10581752;27;2024;-74
2021/10/24 12:33:26;;;;;;;;;;;10.90;99.90;;;9.80;59.85;96431.59;10584781;27;2452;-73
2021/10/24 12:38:29;;;;;;;;;;;10.80;99.90;;;9.81;60.05;96435.94;10581420;27;1870;-74
2021/10/24 12:43:32;;;;;;;;;;;10.70;99.90;;;9.90;59.23;96423.66;10567065;27;1909;-74
2021/10/24 12:48:36;;;;;;;;;;;10.80;99.90;;;10.01;61.69;96422.72;10585809;27;1930;-74
2021/10/24 12:53:38;;;;;;;;;;;10.80;99.90;;;9.85;62.56;96418.25;10578829;27;1940;-73
2021/10/24 12:58:41;;;;;;;;;;;10.90;99.90;;;9.93;61.53;96413.25;10575064;27;2272;-74
2021/10/24 13:03:44;;;;;;;;;;;10.90;99.90;;;9.87;61.58;96411.56;10585607;27;1930;-74
2021/10/24 13:08:47;;;;;;;;;;;10.80;99.90;;;10.13;61.03;96409.94;10580797;27;1968;-74
2021/10/24 13:13:50;;;;;;;;;;;11.00;99.90;;;10.24;60.67;96400.94;10580430;28;1902;-75
2021/10/24 13:18:53;;;;;;;;;;;11.10;99.90;;;10.16;61.40;96398.66;10564483;27;1871;-74
2021/10/24 13:23:56;;;;;;;;;;;11.20;99.90;;;10.27;61.18;96386.97;10615107;27;1942;-73
2021/10/24 13:28:59;;;;;;;;;;;11.20;99.90;;;10.14;61.56;96394.63;10613897;27;1937;-72
2021/10/24 13:34:02;;;;;;;;;;;11.20;99.90;;;10.28;60.26;96396.66;10579323;28;1949;-74
2021/10/24 13:39:05;;;;;;;;;;;11.20;99.90;;;10.31;60.70;96383.75;10555334;28;1883;-74
2021/10/24 13:44:08;;;;;;;;;;;11.20;99.90;;;10.40;59.54;96387.63;10576166;28;1878;-74
2021/10/24 13:49:11;;;;;;;;;;;11.30;99.90;;;10.33;59.94;96392.41;10573768;27;1957;-73
2021/10/24 13:54:14;;;;;;;;;;;11.20;99.90;;;10.23;59.77;96383.19;10577174;27;1970;-74
2021/10/24 13:59:17;;;;;;;;;;;11.20;99.90;;;10.25;60.37;96380.25;10575612;27;1858;-75
2021/10/24 14:04:19;;;;;;;;;;;11.20;99.90;;;10.34;60.01;96386.75;10559486;28;1926;-73
2021/10/24 14:09:22;;;;;;;;;;;11.30;99.90;;;10.37;60.22;96382.75;10578550;28;1918;-75
2021/10/24 14:14:25;;;;;;;;;;;11.30;99.90;;;10.36;59.86;96381.94;10580059;27;1773;-72
2021/10/24 14:19:28;;;;;;;;;;;11.30;99.90;;;10.28;60.39;96388.59;10595062;27;1238;-73
2021/10/24 14:24:31;;;;;;;;;;;11.30;99.90;;;10.12;62.37;96383.34;10609780;27;2026;-74
2021/10/24 14:29:38;;;;;;;;;;;11.20;99.90;;;9.99;64.01;96382.69;10610362;27;2103;-74
2021/10/24 14:34:41;;;;;;;;;;;11.10;99.90;;;9.83;65.89;96378.22;10611616;28;1918;-74
2021/10/24 14:39:49;;;;;;;;;;;11.00;99.90;;;10.07;66.51;96367.97;10600256;28;2083;-74
2021/10/24 14:44:52;;;;;;;;;;;10.90;99.90;;;10.01;66.67;96369.81;10577358;28;1967;-73
2021/10/24 14:49:55;;;;;;;;;;;11.00;99.90;;;9.83;68.51;96361.31;10582764;28;1954;-73
2021/10/24 14:55:00;;;;;;;;;;;10.90;99.90;;;9.82;68.39;96363.19;10580951;27;2003;-74
2021/10/24 15:00:03;;;;;;;;;;;10.80;99.90;;;9.77;68.97;96362.31;10586997;28;1925;-73
2021/10/24 15:05:06;;;;;;;;;;;10.90;99.90;;;9.67;70.28;96358.50;10588935;28;1870;-74
2021/10/24 15:10:09;;;;;;;;;;;10.70;99.90;;;9.65;71.31;96357.91;10599368;28;2156;-74
2021/10/24 15:15:12;;;;;;;;;;;10.70;99.90;;;9.67;71.53;96363.00;10579775;27;2219;-73
2021/10/24 15:25:35;;;;;;;;;;;10.50;99.90;;;9.42;73.80;96352.84;10580469;28;2156;-74
2021/10/24 15:30:38;;;;;;;;;;;10.50;99.90;;;9.29;74.21;96353.22;10574163;27;1962;-74
2021/10/24 15:35:41;;;;;;;;;;;10.40;99.90;;;9.17;74.14;96351.50;10575865;28;1898;-75
2021/10/24 15:40:45;;;;;;;;;;;10.30;99.90;;;9.13;74.08;96350.38;10570024;28;1910;-74
2021/10/24 15:45:48;;;;;;;;;;;10.20;99.90;;;9.00;74.13;96353.41;10570952;28;1871;-73
2021/10/24 15:50:50;;;;;;;;;;;10.10;99.90;;;8.68;75.80;96355.13;10565181;28;2207;-73
2021/10/24 15:55:53;;;;;;;;;;;9.90;99.90;;;8.65;75.15;96351.91;10559926;27;2126;-74
2021/10/24 16:00:56;;;;;;;;;;;9.80;99.90;;;8.54;76.28;96352.81;10552761;28;1764;-75
2021/10/24 16:06:00;;;;;;;;;;;9.70;99.90;;;8.32;76.94;96346.53;10568335;28;1779;-76
2021/10/24 16:11:03;;;;;;;;;;;9.60;99.90;;;8.11;77.00;96348.09;10567427;28;2135;-74
2021/10/24 16:16:06;;;;;;;;;;;9.40;99.90;;;8.03;76.90;96360.03;10568363;28;2379;-74
2021/10/24 16:21:09;;;;;;;;;;;9.20;99.90;;;7.86;77.77;96362.69;10561832;28;1969;-75
2021/10/24 16:26:12;;;;;;;;;;;9.10;99.90;;;7.76;78.26;96357.19;10567430;28;1946;-74
2021/10/24 16:31:14;;;;;;;;;;;8.90;99.90;;;7.80;77.94;96354.81;10569826;28;1909;-74
2021/10/24 16:36:17;;;;;;;;;;;8.90;99.90;;;7.62;78.45;96357.69;10567428;28;1969;-74
2021/10/24 16:41:20;;;;;;;;;;;8.80;99.90;;;7.47;79.54;96350.22;10571978;28;1968;-75
2021/10/24 16:46:23;;;;;;;;;;;8.70;99.90;;;7.28;80.08;96355.75;10569200;28;2144;-74
2021/10/24 16:51:29;;;;;;;;;;;8.50;99.90;;;7.21;80.68;96349.75;10567734;28;2199;-74
2021/10/24 16:56:32;;;;;;;;;;;8.40;99.90;;;7.01;81.87;96347.47;10569787;28;2251;-74
2021/10/24 17:01:35;;;;;;;;;;;8.20;99.90;;;6.86;83.55;96352.50;10547379;28;2227;-73
2021/10/24 17:06:38;;;;;;;;;;;8.10;99.90;;;6.88;83.85;96347.75;10569619;28;1938;-75
2021/10/24 17:11:41;;;;;;;;;;;8.00;99.90;;;6.71;85.07;96353.00;10575098;28;2021;-74
2021/10/24 17:16:51;;;;;;;;;;;8.00;99.90;;;6.68;85.88;96352.63;10573522;28;2061;-75
2021/10/24 17:21:54;;;;;;;;;;;7.90;99.90;;;6.67;85.12;96346.50;10575687;28;1953;-74
2021/10/24 17:26:57;;;;;;;;;;;7.80;99.90;;;6.65;86.13;96351.25;10570204;28;2296;-73
2021/10/24 17:32:00;;;;;;;;;;;7.80;99.90;;;6.50;87.29;96346.41;10583976;27;1973;-74
2021/10/24 17:37:03;;;;;;;;;;;7.80;99.90;;;6.30;88.70;96351.31;10560654;27;1803;-74
2021/10/24 17:42:06;;;;;;;;;;;7.60;99.90;;;6.07;91.64;96351.28;10570630;28;2126;-74
2021/10/24 17:47:09;;;;;;;;;;;7.50;99.90;;;5.91;93.74;96352.75;10568835;28;2101;-74
2021/10/24 17:52:12;;;;;;;;;;;7.30;99.90;;;5.85;95.35;96358.97;10580306;27;2510;-73
2021/10/24 17:57:15;;;;;;;;;;;7.20;99.90;;;5.72;96.02;96369.84;10576666;28;2216;-74
2021/10/24 18:02:18;;;;;;;;;;;7.10;99.90;;;5.73;96.83;96361.66;10575039;28;2434;-75
2021/10/24 18:07:22;;;;;;;;;;;7.00;99.90;;;5.77;96.37;96359.31;10570947;27;1842;-75
2021/10/24 18:12:24;;;;;;;;;;;7.00;99.90;;;5.72;97.82;96362.66;10570155;28;2152;-74
2021/10/24 18:17:27;;;;;;;;;;;7.00;99.90;;;5.53;98.55;96350.44;10572563;28;2401;-74
2021/10/24 18:22:30;;;;;;;;;;;6.90;99.90;;;5.48;99.23;96350.31;10572006;28;1919;-72
2021/10/24 18:27:33;;;;;;;;;;;6.80;99.90;;;5.37;100.00;96347.38;10573172;27;1897;-73
2021/10/24 18:32:36;;;;;;;;;;;6.80;99.90;;;5.42;100.00;96347.53;10575839;27;1922;-75
2021/10/24 18:37:39;;;;;;;;;;;6.70;99.90;;;5.32;100.00;96341.91;10572263;28;1981;-78
2021/10/24 18:42:43;;;;;;;;;;;6.60;99.90;;;5.24;100.00;96341.41;10553088;28;1935;-76
2021/10/24 18:47:46;;;;;;;;;;;6.60;99.90;;;5.27;100.00;96328.44;10565581;28;1908;-75
2021/10/24 18:52:49;;;;;;;;;;;6.60;99.90;;;5.27;100.00;96317.78;10595970;28;1921;-73
2021/10/24 18:57:52;;;;;;;;;;;6.60;99.90;;;5.17;100.00;96314.84;10602119;28;1551;-75
2021/10/24 19:02:55;;;;;;;;;;;6.50;99.90;;;4.98;100.00;96311.41;10600813;27;1906;-75
2021/10/24 19:07:58;;;;;;;;;;;6.40;99.90;;;4.83;100.00;96318.97;10592602;27;1906;-75
2021/10/24 19:13:01;;;;;;;;;;;6.20;99.90;;;4.73;100.00;96321.38;10593453;28;1965;-75
2021/10/24 19:18:04;;;;;;;;;;;6.10;99.90;;;4.71;100.00;96316.28;10575993;28;2346;-75
2021/10/24 19:23:08;;;;;;;;;;;6.10;99.90;;;4.59;100.00;96321.53;10552811;28;1643;-75
2021/10/24 19:28:10;;;;;;;;;;;5.90;99.90;;;4.48;100.00;96321.44;10573800;28;1432;-73
2021/10/24 19:33:13;;;;;;;;;;;5.90;99.90;;;4.43;100.00;96313.31;10572398;28;1937;-74
2021/10/24 19:38:17;;;;;;;;;;;5.80;99.90;;;4.38;100.00;96311.28;10571283;28;2038;-75
2021/10/24 19:43:20;;;;;;;;;;;5.70;99.90;;;4.47;100.00;96301.19;10564633;28;3354;-73
2021/10/24 19:48:23;;;;;;;;;;;5.70;99.90;;;4.41;100.00;96286.09;10572244;27;2994;-75
2021/10/24 19:53:26;;;;;;;;;;;5.70;99.90;;;4.41;100.00;96283.44;10569810;28;2338;-75
2021/10/24 19:58:29;;;;;;;;;;;5.80;99.90;;;4.30;100.00;96292.97;10568689;28;2029;-75
2021/10/24 20:03:32;;;;;;;;;;;5.70;99.90;;;4.22;100.00;96286.09;10566196;28;2299;-75
2021/10/24 20:08:37;;;;;;;;;;;5.60;99.90;;;4.12;100.00;96290.28;10569212;27;1677;-74
2021/10/24 20:13:41;;;;;;;;;;;5.50;99.90;;;4.03;100.00;96290.56;10553217;27;1980;-73
2021/10/24 20:18:44;;;;;;;;;;;5.40;99.90;;;4.04;100.00;96294.06;10565930;28;2334;-73
2021/10/24 20:23:47;;;;;;;;;;;5.40;99.90;;;4.19;100.00;96291.84;10570032;28;1910;-73
2021/10/24 20:28:50;;;;;;;;;;;5.40;99.90;;;4.27;100.00;96293.41;10568471;28;1890;-73
2021/10/24 20:33:53;;;;;;;;;;;5.50;99.90;;;4.39;100.00;96290.81;10568892;28;1913;-74
2021/10/24 20:38:56;;;;;;;;;;;5.50;99.90;;;4.41;100.00;96286.91;10576264;28;1946;-74
2021/10/24 20:43:59;;;;;;;;;;;5.60;99.90;;;4.46;100.00;96281.75;10556732;28;1850;-73
2021/10/24 20:49:02;;;;;;;;;;;5.70;99.90;;;4.55;100.00;96272.41;10575401;28;2068;-76
2021/10/24 20:54:05;;;;;;;;;;;5.70;99.90;;;4.46;100.00;96272.94;10558165;28;1970;-76
2021/10/24 20:59:08;;;;;;;;;;;5.70;99.90;;;4.31;100.00;96266.13;10579459;27;1933;-74
2021/10/24 21:04:11;;;;;;;;;;;5.70;99.90;;;4.32;100.00;96269.59;10575587;28;1914;-75
2021/10/24 21:09:14;;;;;;;;;;;5.60;99.90;;;4.24;100.00;96268.03;10566832;28;2193;-75
2021/10/24 21:14:17;;;;;;;;;;;5.60;99.90;;;4.11;100.00;96262.06;10572129;28;3401;-72
2021/10/24 21:19:20;;;;;;;;;;;5.40;99.90;;;3.93;100.00;96262.84;10554504;28;2698;-73
2021/10/24 21:24:23;;;;;;;;;;;5.30;99.90;;;3.78;100.00;96258.69;10576300;28;2366;-73
2021/10/24 21:29:27;;;;;;;;;;;5.20;99.90;;;3.68;100.00;96258.34;10575353;28;1839;-74
2021/10/24 21:34:30;;;;;;;;;;;5.00;99.90;;;3.61;100.00;96257.59;10574378;28;1918;-74
2021/10/24 21:39:33;;;;;;;;;;;5.00;99.90;;;3.51;100.00;96259.97;10573428;28;1843;-74
2021/10/24 21:44:36;;;;;;;;;;;4.90;99.90;;;3.52;100.00;96265.06;10573093;27;1983;-74
2021/10/24 21:49:39;;;;;;;;;;;4.80;99.90;;;3.46;100.00;96249.16;10571437;28;2320;-73
2021/10/24 21:54:42;;;;;;;;;;;4.80;99.90;;;3.52;100.00;96248.28;10573552;28;1976;-73
2021/10/24 21:59:45;;;;;;;;;;;4.80;99.90;;;3.48;100.00;96247.91;10572195;28;1929;-74
2021/10/24 22:04:49;;;;;;;;;;;4.80;99.90;;;3.52;100.00;96237.66;10575170;28;1847;-73
2021/10/24 22:09:53;;;;;;;;;;;4.80;99.90;;;3.47;100.00;96246.28;10572555;28;1905;-74
2021/10/24 22:14:56;;;;;;;;;;;4.80;99.90;;;3.36;100.00;96235.53;10573405;28;1913;-74
2021/10/24 22:19:59;;;;;;;;;;;4.70;99.90;;;3.32;100.00;96239.66;10566171;28;1965;-73
2021/10/24 22:25:02;;;;;;;;;;;4.70;99.90;;;3.20;100.00;96235.06;10569517;28;2044;-73
2021/10/24 22:30:05;;;;;;;;;;;4.60;99.90;;;3.23;100.00;96239.91;10570766;28;1863;-74
2021/10/24 22:35:08;;;;;;;;;;;4.50;99.90;;;3.21;100.00;96235.88;10571521;28;2207;-75
2021/10/24 22:40:12;;;;;;;;;;;4.60;99.90;;;3.18;100.00;96229.16;10573883;28;1913;-73
2021/10/24 22:45:18;;;;;;;;;;;4.50;99.90;;;3.10;100.00;96240.00;10573224;28;1921;-73
2021/10/24 22:50:21;;;;;;;;;;;4.50;99.90;;;3.12;100.00;96227.34;10573574;28;2256;-75
2021/10/24 22:55:24;;;;;;;;;;;4.40;99.90;;;3.08;100.00;96222.69;10564549;28;2069;-73
2021/10/24 23:00:27;;;;;;;;;;;4.40;99.90;;;3.01;100.00;96225.38;10573429;27;1998;-73
2021/10/24 23:05:30;;;;;;;;;;;4.30;99.90;;;2.95;100.00;96220.94;10565873;28;1942;-74
2021/10/24 23:10:33;;;;;;;;;;;4.30;99.90;;;2.91;100.00;96227.69;10570376;28;1902;-74
2021/10/24 23:15:35;;;;;;;;;;;4.40;99.90;;;2.80;100.00;96228.34;10572361;28;1894;-74
2021/10/24 23:20:38;;;;;;;;;;;4.10;99.90;;;2.77;100.00;96223.50;10571787;28;1914;-74
2021/10/24 23:25:41;;;;;;;;;;;4.10;99.90;;;2.75;100.00;96225.56;10569841;28;1878;-74
2021/10/24 23:30:44;;;;;;;;;;;4.00;99.90;;;2.72;100.00;96224.13;10572285;27;1866;-73
2021/10/24 23:35:47;;;;;;;;;;;4.00;99.90;;;2.69;100.00;96227.22;10569263;28;1975;-74
2021/10/24 23:40:50;;;;;;;;;;;4.00;99.90;;;2.62;100.00;96229.91;10555703;27;1404;-72
2021/10/24 23:45:53;;;;;;;;;;;3.90;99.90;;;2.60;100.00;96228.47;10570933;28;1256;-74